Time;durP1;ratioP1;P1;durP2;ratioP2;P2;SDS_P1;SDS_P2;PMS_P1;PMS_P2;Temp;Humidity;BMP_temperature;BMP_pressure;BME280_temperature;BME280_humidity;BME280_pressure;Samples;Min_cycle;Max_cycle;Signal;HPM_P1;HPM_P2
2021/03/29 00:01:43;;;;;;;12.00;5.22;;;;;;;;;;5114014;28;20218;-63
2021/03/29 00:04:10;;;;;;;11.07;5.60;;;;;;;;;;5114761;28;20710;-63
2021/03/29 00:06:38;;;;;;;10.90;5.10;;;;;;;;;;5114555;28;20336;-63
2021/03/29 00:09:05;;;;;;;12.07;4.95;;;;;;;;;;5114505;28;20290;-64
2021/03/29 00:11:34;;;;;;;14.45;5.47;;;;;;;;;;5114537;28;20321;-63
2021/03/29 00:14:01;;;;;;;7.85;5.07;;;;;;;;;;5114439;28;20627;-63
2021/03/29 00:16:28;;;;;;;10.32;5.00;;;;;;;;;;5114368;28;20233;-63
2021/03/29 00:18:55;;;;;;;7.78;4.50;;;;;;;;;;5114370;28;20277;-63
2021/03/29 00:21:22;;;;;;;16.48;5.75;;;;;;;;;;5113882;28;20272;-63
2021/03/29 00:23:50;;;;;;;9.10;5.03;;;;;;;;;;5114771;28;20347;-64
2021/03/29 00:26:17;;;;;;;10.90;5.18;;;;;;;;;;5114127;28;20619;-63
2021/03/29 00:28:43;;;;;;;10.90;5.57;;;;;;;;;;5114191;28;20283;-63
2021/03/29 00:31:11;;;;;;;14.60;6.43;;;;;;;;;;5114134;28;20202;-63
2021/03/29 00:33:38;;;;;;;9.30;5.25;;;;;;;;;;5114122;28;20191;-63
2021/03/29 00:36:06;;;;;;;7.80;5.50;;;;;;;;;;5114182;28;20228;-63
2021/03/29 00:38:34;;;;;;;8.57;5.55;;;;;;;;;;5114219;28;20460;-64
2021/03/29 00:41:07;;;;;;;11.52;5.68;;;;;;;;;;5114252;28;20310;-63
2021/03/29 00:43:34;;;;;;;15.10;5.80;;;;;;;;;;5114133;28;20268;-63
2021/03/29 00:46:02;;;;;;;7.85;5.10;;;;;;;;;;5114189;28;20337;-63
2021/03/29 00:48:30;;;;;;;14.80;6.05;;;;;;;;;;5113799;28;20264;-63
2021/03/29 00:51:06;;;;;;;11.50;5.30;;;;;;;;;;5114156;28;20260;-63
2021/03/29 00:53:33;;;;;;;6.68;5.47;;;;;;;;;;5114078;28;20273;-63
2021/03/29 00:56:00;;;;;;;12.02;6.53;;;;;;;;;;5113908;28;20294;-63
2021/03/29 00:58:28;;;;;;;16.85;6.28;;;;;;;;;;5114362;28;20282;-64
2021/03/29 01:00:56;;;;;;;12.10;6.50;;;;;;;;;;5113792;28;20278;-63
2021/03/29 01:03:23;;;;;;;10.95;5.75;;;;;;;;;;5114031;28;20305;-64
2021/03/29 01:05:56;;;;;;;12.18;5.72;;;;;;;;;;5114004;28;20335;-63
2021/03/29 01:08:23;;;;;;;14.88;5.30;;;;;;;;;;5116853;28;20183;-63
2021/03/29 01:10:50;;;;;;;12.15;5.95;;;;;;;;;;5118741;28;20199;-63
2021/03/29 01:13:18;;;;;;;12.85;5.97;;;;;;;;;;5117765;28;20236;-64
2021/03/29 01:15:46;;;;;;;18.17;5.75;;;;;;;;;;5117915;28;20594;-64
2021/03/29 01:18:15;;;;;;;11.05;5.80;;;;;;;;;;5117490;28;20625;-64
2021/03/29 01:20:49;;;;;;;14.55;6.25;;;;;;;;;;5117936;28;20318;-63
2021/03/29 01:23:16;;;;;;;17.35;5.50;;;;;;;;;;5117809;28;20218;-64
2021/03/29 01:25:45;;;;;;;14.05;7.50;;;;;;;;;;5117697;28;20282;-63
2021/03/29 01:28:16;;;;;;;8.10;5.00;;;;;;;;;;5117741;28;20231;-63
2021/03/29 01:30:44;;;;;;;13.02;6.05;;;;;;;;;;5117284;28;20276;-63
2021/03/29 01:33:11;;;;;;;10.88;4.85;;;;;;;;;;5117275;28;20226;-63
2021/03/29 01:35:39;;;;;;;11.25;6.15;;;;;;;;;;5117405;28;20290;-64
2021/03/29 01:38:07;;;;;;;11.70;5.40;;;;;;;;;;5117408;28;20676;-63
2021/03/29 01:40:35;;;;;;;15.20;5.78;;;;;;;;;;5117254;28;20270;-63
2021/03/29 01:43:02;;;;;;;9.80;5.18;;;;;;;;;;5117331;28;20282;-64
2021/03/29 01:45:30;;;;;;;17.65;5.88;;;;;;;;;;5117272;28;20234;-63
2021/03/29 01:47:57;;;;;;;8.48;4.85;;;;;;;;;;5117668;28;20228;-63
2021/03/29 01:50:25;;;;;;;9.88;5.38;;;;;;;;;;5117153;28;20352;-63
2021/03/29 01:52:52;;;;;;;9.48;5.20;;;;;;;;;;5117096;28;20336;-63
2021/03/29 01:55:19;;;;;;;10.50;5.20;;;;;;;;;;5116754;28;20200;-63
2021/03/29 01:57:46;;;;;;;11.27;6.00;;;;;;;;;;5116590;28;20299;-63
2021/03/29 02:00:15;;;;;;;15.52;5.28;;;;;;;;;;5117246;28;20283;-63
2021/03/29 02:02:43;;;;;;;13.07;5.30;;;;;;;;;;5117062;28;20691;-63
2021/03/29 02:05:11;;;;;;;9.27;5.05;;;;;;;;;;5117380;28;20289;-63
2021/03/29 02:07:38;;;;;;;10.80;4.70;;;;;;;;;;5117205;28;20292;-64
2021/03/29 02:10:08;;;;;;;6.55;4.60;;;;;;;;;;5116797;28;20277;-63
2021/03/29 02:12:35;;;;;;;9.68;4.68;;;;;;;;;;5116917;28;20215;-64
2021/03/29 02:15:02;;;;;;;8.68;4.57;;;;;;;;;;5116906;28;20227;-63
2021/03/29 02:17:29;;;;;;;7.75;4.70;;;;;;;;;;5116634;28;20244;-63
2021/03/29 02:19:58;;;;;;;11.00;5.05;;;;;;;;;;5116740;28;20225;-63
2021/03/29 02:22:25;;;;;;;7.53;5.45;;;;;;;;;;5116752;28;20257;-63
2021/03/29 02:24:52;;;;;;;7.63;4.28;;;;;;;;;;5116480;28;20285;-64
2021/03/29 02:27:19;;;;;;;6.22;4.28;;;;;;;;;;5116204;28;20228;-64
2021/03/29 02:29:45;;;;;;;7.25;4.10;;;;;;;;;;5116801;28;20194;-63
2021/03/29 02:32:12;;;;;;;8.48;4.70;;;;;;;;;;5116038;28;20332;-63
2021/03/29 02:34:39;;;;;;;12.00;6.07;;;;;;;;;;5116618;28;20283;-64
2021/03/29 02:37:07;;;;;;;9.40;4.75;;;;;;;;;;5116278;28;20282;-62
2021/03/29 02:39:34;;;;;;;8.82;5.40;;;;;;;;;;5116771;28;20279;-63
2021/03/29 02:42:02;;;;;;;15.25;5.35;;;;;;;;;;5116105;28;20314;-62
2021/03/29 02:44:29;;;;;;;12.23;4.20;;;;;;;;;;5116746;28;20196;-63
2021/03/29 02:46:56;;;;;;;9.43;4.90;;;;;;;;;;5115722;28;20292;-64
2021/03/29 02:49:23;;;;;;;12.95;5.00;;;;;;;;;;5116009;28;20278;-62
2021/03/29 02:51:50;;;;;;;9.40;4.32;;;;;;;;;;5116126;28;20203;-63
2021/03/29 02:54:21;;;;;;;13.27;4.72;;;;;;;;;;5115580;28;20282;-63
2021/03/29 02:56:48;;;;;;;11.63;5.53;;;;;;;;;;5116223;28;20281;-63
2021/03/29 02:59:16;;;;;;;9.13;4.30;;;;;;;;;;5116151;28;20276;-63
2021/03/29 03:01:44;;;;;;;12.18;5.15;;;;;;;;;;5115785;28;20306;-63
2021/03/29 03:04:11;;;;;;;6.93;3.88;;;;;;;;;;5115903;28;20685;-63
2021/03/29 03:06:39;;;;;;;12.18;6.20;;;;;;;;;;5115377;28;20287;-63
2021/03/29 03:09:06;;;;;;;12.18;5.47;;;;;;;;;;5116042;28;20198;-64
2021/03/29 03:11:34;;;;;;;6.80;4.63;;;;;;;;;;5115595;28;20235;-63
2021/03/29 03:14:04;;;;;;;15.52;4.95;;;;;;;;;;5115226;28;20652;-63
2021/03/29 03:16:31;;;;;;;12.45;5.10;;;;;;;;;;5115533;28;20301;-63
2021/03/29 03:18:57;;;;;;;6.43;4.10;;;;;;;;;;5115466;28;20609;-65
2021/03/29 03:21:24;;;;;;;8.30;4.75;;;;;;;;;;5116204;28;20362;-64
2021/03/29 03:23:52;;;;;;;7.30;4.50;;;;;;;;;;5114987;28;20288;-63
2021/03/29 03:26:19;;;;;;;10.38;4.40;;;;;;;;;;5115535;28;20664;-63
2021/03/29 03:28:46;;;;;;;11.15;5.63;;;;;;;;;;5114936;28;20245;-63
2021/03/29 03:31:13;;;;;;;12.88;5.43;;;;;;;;;;5114547;28;20281;-64
2021/03/29 03:33:40;;;;;;;11.82;5.15;;;;;;;;;;5115151;28;20286;-63
2021/03/29 03:36:07;;;;;;;9.25;4.32;;;;;;;;;;5114728;28;20285;-63
2021/03/29 03:38:35;;;;;;;8.68;4.82;;;;;;;;;;5114623;28;20231;-63
2021/03/29 03:41:04;;;;;;;11.27;4.93;;;;;;;;;;5114579;28;20760;-63
2021/03/29 03:43:33;;;;;;;13.73;5.05;;;;;;;;;;5114999;28;20659;-64
2021/03/29 03:46:02;;;;;;;13.80;4.97;;;;;;;;;;5114919;28;20206;-63
2021/03/29 03:48:29;;;;;;;11.65;4.20;;;;;;;;;;5114816;28;20292;-63
2021/03/29 03:50:56;;;;;;;9.55;4.70;;;;;;;;;;5114784;28;20291;-63
2021/03/29 03:53:23;;;;;;;12.80;5.55;;;;;;;;;;5115226;28;20281;-64
2021/03/29 03:55:53;;;;;;;12.50;5.07;;;;;;;;;;5114724;28;20278;-64
2021/03/29 03:58:20;;;;;;;7.93;4.63;;;;;;;;;;5114971;28;20203;-63
2021/03/29 04:00:47;;;;;;;16.00;4.35;;;;;;;;;;5114515;28;20304;-64
2021/03/29 04:03:14;;;;;;;12.93;5.28;;;;;;;;;;5114599;28;20258;-64
2021/03/29 04:05:41;;;;;;;11.90;4.82;;;;;;;;;;5114874;28;20282;-64
2021/03/29 04:08:09;;;;;;;6.47;4.35;;;;;;;;;;5114235;28;20230;-64
2021/03/29 04:10:41;;;;;;;7.93;4.50;;;;;;;;;;5114299;28;20253;-63
2021/03/29 04:13:09;;;;;;;14.88;4.78;;;;;;;;;;5115268;28;20182;-64
2021/03/29 04:15:36;;;;;;;10.40;5.47;;;;;;;;;;5113980;28;20204;-63
2021/03/29 04:18:03;;;;;;;8.65;5.30;;;;;;;;;;5114062;28;20201;-63
2021/03/29 04:20:30;;;;;;;11.43;5.03;;;;;;;;;;5113905;28;20286;-64
2021/03/29 04:22:57;;;;;;;7.95;4.68;;;;;;;;;;5114244;28;20288;-64
2021/03/29 04:25:24;;;;;;;8.10;4.55;;;;;;;;;;5113965;28;20246;-64
2021/03/29 04:27:51;;;;;;;10.32;4.65;;;;;;;;;;5113927;28;20196;-64
2021/03/29 04:30:19;;;;;;;8.02;4.63;;;;;;;;;;5114568;28;20282;-64
2021/03/29 04:32:46;;;;;;;8.75;4.43;;;;;;;;;;5114521;28;20281;-63
2021/03/29 04:35:14;;;;;;;9.95;4.72;;;;;;;;;;5114415;28;20203;-64
2021/03/29 04:37:41;;;;;;;12.32;5.10;;;;;;;;;;5114025;28;20286;-65
2021/03/29 04:40:09;;;;;;;8.82;4.57;;;;;;;;;;5112087;28;20285;-64
2021/03/29 04:42:35;;;;;;;8.93;4.57;;;;;;;;;;5111559;28;20304;-65
2021/03/29 04:45:02;;;;;;;9.95;4.60;;;;;;;;;;5112825;28;20225;-63
2021/03/29 04:47:29;;;;;;;9.32;4.35;;;;;;;;;;5113077;28;20197;-64
2021/03/29 04:49:56;;;;;;;6.63;3.88;;;;;;;;;;5113028;28;20297;-64
2021/03/29 04:52:23;;;;;;;7.88;4.10;;;;;;;;;;5113293;28;20651;-64
2021/03/29 04:54:50;;;;;;;9.98;5.40;;;;;;;;;;5112677;28;20244;-64
2021/03/29 04:57:17;;;;;;;15.40;5.07;;;;;;;;;;5112966;28;20284;-63
2021/03/29 04:59:44;;;;;;;7.72;4.07;;;;;;;;;;5113015;28;20286;-64
2021/03/29 05:02:10;;;;;;;12.48;5.47;;;;;;;;;;5112963;28;20281;-63
2021/03/29 05:04:37;;;;;;;10.73;3.97;;;;;;;;;;5112399;28;20237;-63
2021/03/29 05:07:08;;;;;;;10.45;4.38;;;;;;;;;;5113431;28;20231;-63
2021/03/29 05:09:35;;;;;;;14.40;5.22;;;;;;;;;;5112014;28;20263;-63
2021/03/29 05:12:09;;;;;;;10.38;4.60;;;;;;;;;;5113545;28;20242;-64
2021/03/29 05:14:36;;;;;;;11.80;4.53;;;;;;;;;;5113547;28;20189;-64
2021/03/29 05:17:03;;;;;;;9.20;4.05;;;;;;;;;;5113561;28;20554;-63
2021/03/29 05:19:30;;;;;;;10.10;3.35;;;;;;;;;;5113670;28;20277;-63
2021/03/29 05:21:56;;;;;;;11.38;4.07;;;;;;;;;;5113543;28;20314;-64
2021/03/29 05:24:23;;;;;;;9.52;4.57;;;;;;;;;;5113840;28;20249;-64
2021/03/29 05:26:50;;;;;;;10.43;4.45;;;;;;;;;;5113257;28;20230;-64
2021/03/29 05:29:18;;;;;;;12.48;4.30;;;;;;;;;;5113377;28;20241;-64
2021/03/29 05:31:45;;;;;;;7.82;4.35;;;;;;;;;;5112771;28;20202;-64
2021/03/29 05:34:13;;;;;;;10.93;4.75;;;;;;;;;;5113386;28;20290;-63
2021/03/29 05:36:39;;;;;;;8.70;4.95;;;;;;;;;;5112995;28;20196;-63
2021/03/29 05:39:06;;;;;;;7.70;4.50;;;;;;;;;;5111790;28;20549;-63
2021/03/29 05:41:33;;;;;;;13.00;4.18;;;;;;;;;;5112845;28;20220;-64
2021/03/29 05:44:00;;;;;;;11.80;4.82;;;;;;;;;;5113206;28;20297;-64
2021/03/29 05:46:28;;;;;;;9.40;3.70;;;;;;;;;;5113108;28;20291;-63
2021/03/29 05:48:55;;;;;;;7.40;4.22;;;;;;;;;;5113075;28;20245;-64
2021/03/29 05:51:21;;;;;;;9.82;4.22;;;;;;;;;;5113314;28;20286;-64
2021/03/29 05:53:48;;;;;;;9.85;4.38;;;;;;;;;;5114583;28;20313;-63
2021/03/29 05:56:15;;;;;;;8.27;3.60;;;;;;;;;;5117722;28;20225;-64
2021/03/29 05:58:44;;;;;;;8.75;3.97;;;;;;;;;;5116973;27;20191;-63
2021/03/29 06:01:11;;;;;;;7.68;4.97;;;;;;;;;;5116801;28;20267;-63
2021/03/29 06:03:40;;;;;;;5.75;4.40;;;;;;;;;;5117063;28;20376;-65
2021/03/29 06:06:22;;;;;;;14.40;4.50;;;;;;;;;;5116459;28;20281;-64
2021/03/29 06:08:49;;;;;;;16.30;5.43;;;;;;;;;;5114730;28;20190;-64
2021/03/29 06:11:23;;;;;;;12.68;4.75;;;;;;;;;;5116366;28;20326;-64
2021/03/29 06:14:05;;;;;;;11.23;4.70;;;;;;;;;;5116849;28;20250;-64
2021/03/29 06:16:32;;;;;;;8.00;4.18;;;;;;;;;;5117082;28;20218;-65
2021/03/29 06:18:59;;;;;;;10.77;4.70;;;;;;;;;;5116243;28;20703;-63
2021/03/29 06:21:26;;;;;;;12.35;5.05;;;;;;;;;;5116460;28;20352;-63
2021/03/29 06:23:58;;;;;;;8.80;3.78;;;;;;;;;;5116403;28;20321;-63
2021/03/29 06:26:27;;;;;;;10.55;3.60;;;;;;;;;;5116030;28;20202;-63
2021/03/29 06:28:54;;;;;;;9.13;4.05;;;;;;;;;;5115967;28;20677;-64
2021/03/29 06:31:25;;;;;;;7.13;4.03;;;;;;;;;;5116277;28;20292;-64
2021/03/29 06:33:52;;;;;;;13.45;5.00;;;;;;;;;;5116234;28;20231;-64
2021/03/29 06:36:26;;;;;;;7.25;3.63;;;;;;;;;;5116516;28;20200;-64
2021/03/29 06:38:53;;;;;;;12.32;4.22;;;;;;;;;;5116474;27;20372;-63
2021/03/29 06:41:28;;;;;;;7.95;3.90;;;;;;;;;;5116015;28;20218;-63
2021/03/29 06:43:55;;;;;;;9.63;4.10;;;;;;;;;;5115748;28;20282;-64
2021/03/29 06:46:23;;;;;;;10.48;4.43;;;;;;;;;;5116020;28;20470;-63
2021/03/29 06:48:49;;;;;;;8.25;3.78;;;;;;;;;;5115724;28;20230;-63
2021/03/29 06:51:17;;;;;;;13.63;3.85;;;;;;;;;;5116296;28;20251;-64
2021/03/29 06:53:46;;;;;;;10.32;4.60;;;;;;;;;;5115627;28;20282;-63
2021/03/29 06:56:20;;;;;;;10.82;3.40;;;;;;;;;;5115476;28;20195;-64
2021/03/29 06:58:47;;;;;;;12.85;4.20;;;;;;;;;;5116158;28;20278;-64
2021/03/29 07:01:16;;;;;;;9.15;4.50;;;;;;;;;;5115709;28;20217;-64
2021/03/29 07:03:43;;;;;;;11.77;4.20;;;;;;;;;;5116135;28;20324;-63
2021/03/29 07:06:10;;;;;;;7.83;4.10;;;;;;;;;;5114671;28;20233;-64
2021/03/29 07:08:37;;;;;;;9.27;4.10;;;;;;;;;;5115564;28;20493;-64
2021/03/29 07:11:05;;;;;;;10.27;4.00;;;;;;;;;;5115421;28;20255;-64
2021/03/29 07:13:32;;;;;;;9.80;3.93;;;;;;;;;;5115754;28;20239;-64
2021/03/29 07:16:00;;;;;;;8.47;4.27;;;;;;;;;;5115673;28;20478;-64
2021/03/29 07:18:27;;;;;;;5.47;3.58;;;;;;;;;;5115015;28;20476;-65
2021/03/29 07:20:55;;;;;;;9.27;3.67;;;;;;;;;;5115014;28;20313;-64
2021/03/29 07:23:22;;;;;;;13.80;4.65;;;;;;;;;;5114884;28;20201;-65
2021/03/29 07:25:48;;;;;;;10.63;4.10;;;;;;;;;;5115114;28;20224;-65
2021/03/29 07:28:20;;;;;;;5.05;3.05;;;;;;;;;;5115477;28;20489;-65
2021/03/29 07:30:48;;;;;;;15.38;3.80;;;;;;;;;;5115213;28;20706;-64
2021/03/29 07:33:15;;;;;;;6.33;4.23;;;;;;;;;;5114700;28;20214;-64
2021/03/29 07:35:46;;;;;;;12.15;4.25;;;;;;;;;;5114738;28;20439;-64
2021/03/29 07:38:13;;;;;;;8.63;3.97;;;;;;;;;;5114874;28;20579;-64
2021/03/29 07:40:42;;;;;;;11.60;4.95;;;;;;;;;;5114428;28;20431;-63
2021/03/29 07:43:11;;;;;;;8.10;3.23;;;;;;;;;;5114902;28;20200;-64
2021/03/29 07:45:52;;;;;;;15.97;4.27;;;;;;;;;;5114803;28;20447;-65
2021/03/29 07:48:35;;;;;;;8.83;4.30;;;;;;;;;;5114758;28;20442;-64
2021/03/29 07:51:04;;;;;;;8.05;3.63;;;;;;;;;;5115060;28;20442;-65
2021/03/29 07:53:42;;;;;;;7.60;3.50;;;;;;;;;;5114690;27;20688;-65
2021/03/29 07:56:09;;;;;;;10.23;3.70;;;;;;;;;;5114612;28;20501;-64
2021/03/29 07:58:44;;;;;;;14.10;3.80;;;;;;;;;;5114468;28;20529;-64
2021/03/29 08:01:13;;;;;;;8.93;4.93;;;;;;;;;;5113891;28;20534;-65
2021/03/29 08:03:47;;;;;;;5.90;4.00;;;;;;;;;;5114287;28;21007;-64
2021/03/29 08:06:33;;;;;;;13.53;6.77;;;;;;;;;;5113820;28;20438;-63
2021/03/29 08:08:59;;;;;;;8.13;4.30;;;;;;;;;;5114785;28;20439;-64
2021/03/29 08:11:26;;;;;;;13.43;4.10;;;;;;;;;;5114233;28;20530;-64
2021/03/29 08:13:55;;;;;;;13.03;4.60;;;;;;;;;;5114508;28;20531;-64
2021/03/29 08:16:30;;;;;;;8.97;3.80;;;;;;;;;;5113737;28;20450;-64
2021/03/29 08:19:10;;;;;;;20.63;4.43;;;;;;;;;;5114394;28;20478;-65
2021/03/29 08:21:44;;;;;;;13.63;4.37;;;;;;;;;;5113694;28;20680;-64
2021/03/29 08:24:17;;;;;;;8.40;3.50;;;;;;;;;;5114736;28;20470;-64
2021/03/29 08:26:44;;;;;;;9.20;3.80;;;;;;;;;;5113941;28;20438;-64
2021/03/29 08:29:11;;;;;;;7.07;3.97;;;;;;;;;;5113938;28;20474;-65
2021/03/29 08:31:56;;;;;;;8.87;3.93;;;;;;;;;;5113974;28;20446;-64
2021/03/29 08:34:24;;;;;;;7.13;3.67;;;;;;;;;;5114126;28;20813;-63
2021/03/29 08:36:51;;;;;;;10.53;3.90;;;;;;;;;;5114298;28;20528;-63
2021/03/29 08:39:17;;;;;;;10.77;5.50;;;;;;;;;;5095193;28;20466;-64
2021/03/29 08:41:44;;;;;;;5.77;3.70;;;;;;;;;;5113564;28;20502;-65
2021/03/29 08:44:11;;;;;;;8.80;4.03;;;;;;;;;;5113629;28;20479;-64
2021/03/29 08:46:40;;;;;;;9.20;3.63;;;;;;;;;;5114264;28;20526;-64
2021/03/29 08:49:08;;;;;;;6.03;2.77;;;;;;;;;;5114087;28;20443;-64
2021/03/29 08:51:36;;;;;;;13.93;3.97;;;;;;;;;;5113528;28;20643;-64
2021/03/29 08:54:06;;;;;;;10.90;3.60;;;;;;;;;;5113866;28;20449;-65
2021/03/29 08:56:40;;;;;;;10.97;3.90;;;;;;;;;;5113602;28;20987;-64
2021/03/29 08:59:07;;;;;;;8.30;3.33;;;;;;;;;;5113482;28;20584;-64
2021/03/29 09:01:34;;;;;;;14.63;4.27;;;;;;;;;;5113086;28;21009;-63
2021/03/29 09:04:01;;;;;;;7.90;3.43;;;;;;;;;;5113620;28;20513;-64
2021/03/29 09:06:28;;;;;;;5.40;3.13;;;;;;;;;;5114138;28;20516;-65
2021/03/29 09:08:56;;;;;;;8.23;3.37;;;;;;;;;;5114088;28;20438;-65
2021/03/29 09:11:23;;;;;;;7.03;3.37;;;;;;;;;;5113879;28;20446;-64
2021/03/29 09:13:54;;;;;;;4.10;2.80;;;;;;;;;;5113680;28;20474;-65
2021/03/29 09:16:23;;;;;;;7.87;3.03;;;;;;;;;;5113744;28;20430;-64
2021/03/29 09:18:50;;;;;;;8.00;2.90;;;;;;;;;;5113940;28;20435;-64
2021/03/29 09:21:24;;;;;;;7.00;3.37;;;;;;;;;;5113412;28;20508;-64
2021/03/29 09:23:51;;;;;;;3.17;2.80;;;;;;;;;;5113732;28;20484;-65
2021/03/29 09:26:25;;;;;;;6.20;3.40;;;;;;;;;;5113531;28;20993;-66
2021/03/29 09:28:54;;;;;;;3.90;2.60;;;;;;;;;;5115277;28;20428;-66
2021/03/29 09:31:23;;;;;;;7.93;3.23;;;;;;;;;;5117424;28;20477;-65
2021/03/29 09:33:50;;;;;;;4.57;3.30;;;;;;;;;;5117397;28;20434;-64
2021/03/29 09:36:18;;;;;;;4.87;2.77;;;;;;;;;;5117109;28;20478;-65
2021/03/29 09:38:46;;;;;;;3.70;3.20;;;;;;;;;;5117376;28;20488;-64
2021/03/29 09:41:16;;;;;;;7.57;2.60;;;;;;;;;;5116913;28;20564;-65
2021/03/29 09:43:44;;;;;;;2.80;2.60;;;;;;;;;;5117081;28;20474;-63
2021/03/29 09:46:11;;;;;;;8.23;3.40;;;;;;;;;;5117789;28;20461;-64
2021/03/29 09:48:38;;;;;;;4.40;3.07;;;;;;;;;;5117086;28;20523;-64
2021/03/29 09:51:17;;;;;;;8.00;3.10;;;;;;;;;;5116672;27;20929;-65
2021/03/29 09:53:44;;;;;;;8.50;3.70;;;;;;;;;;5117268;28;20777;-64
2021/03/29 09:56:26;;;;;;;5.07;2.90;;;;;;;;;;5116948;28;20430;-65
2021/03/29 09:58:54;;;;;;;7.53;3.47;;;;;;;;;;5116956;28;20442;-65
2021/03/29 10:01:21;;;;;;;6.53;3.20;;;;;;;;;;5117024;28;20470;-64
2021/03/29 10:03:52;;;;;;;16.67;3.23;;;;;;;;;;5116515;28;20473;-65
2021/03/29 10:06:19;;;;;;;6.43;3.33;;;;;;;;;;5117363;28;20479;-64
2021/03/29 10:09:07;;;;;;;5.70;2.90;;;;;;;;;;5116646;28;20941;-64
2021/03/29 10:11:43;;;;;;;5.00;3.30;;;;;;;;;;5116706;28;20430;-64
2021/03/29 10:14:15;;;;;;;4.93;3.33;;;;;;;;;;5117234;28;20450;-64
2021/03/29 10:16:44;;;;;;;9.07;3.13;;;;;;;;;;5116329;28;20958;-64
2021/03/29 10:19:12;;;;;;;7.33;3.70;;;;;;;;;;5116528;28;20491;-64
2021/03/29 10:21:57;;;;;;;3.50;2.87;;;;;;;;;;5116697;28;20471;-64
2021/03/29 10:24:24;;;;;;;5.50;2.80;;;;;;;;;;5116559;28;20525;-64
2021/03/29 10:26:54;;;;;;;7.67;3.07;;;;;;;;;;5116381;27;20443;-64
2021/03/29 10:29:36;;;;;;;5.77;2.70;;;;;;;;;;5116368;28;20439;-64
2021/03/29 10:32:05;;;;;;;6.13;2.90;;;;;;;;;;5117266;28;20499;-65
2021/03/29 10:34:33;;;;;;;6.10;3.30;;;;;;;;;;5116043;27;20494;-64
2021/03/29 10:37:00;;;;;;;6.17;3.90;;;;;;;;;;5116341;28;20435;-64
2021/03/29 10:39:27;;;;;;;7.00;3.00;;;;;;;;;;5115689;28;20514;-64
2021/03/29 10:41:54;;;;;;;7.17;3.03;;;;;;;;;;5115566;28;20516;-64
2021/03/29 10:44:21;;;;;;;4.67;3.00;;;;;;;;;;5116709;28;20475;-64
2021/03/29 10:46:48;;;;;;;6.47;3.00;;;;;;;;;;5115545;28;20446;-64
2021/03/29 10:49:15;;;;;;;4.30;2.93;;;;;;;;;;5115798;28;20788;-64
2021/03/29 10:51:42;;;;;;;5.50;2.87;;;;;;;;;;5115812;28;20438;-65
2021/03/29 10:54:09;;;;;;;8.40;3.13;;;;;;;;;;5115500;27;20971;-65
2021/03/29 10:56:36;;;;;;;7.13;3.13;;;;;;;;;;5115495;28;20539;-64
2021/03/29 10:59:03;;;;;;;5.33;2.60;;;;;;;;;;5116460;28;20761;-64
2021/03/29 11:01:29;;;;;;;6.70;3.03;;;;;;;;;;5116086;28;20510;-66
2021/03/29 11:03:57;;;;;;;8.97;3.43;;;;;;;;;;5116176;28;21006;-65
2021/03/29 11:06:24;;;;;;;9.23;3.53;;;;;;;;;;5115508;28;20538;-64
2021/03/29 11:08:50;;;;;;;9.10;3.13;;;;;;;;;;5115460;28;20903;-64
2021/03/29 11:11:18;;;;;;;3.93;3.30;;;;;;;;;;5115282;27;20446;-66
2021/03/29 11:13:46;;;;;;;7.50;2.97;;;;;;;;;;5114774;28;20438;-64
2021/03/29 11:16:13;;;;;;;9.13;3.00;;;;;;;;;;5115308;28;20518;-64
2021/03/29 11:18:40;;;;;;;6.50;2.67;;;;;;;;;;5114755;28;20531;-64
2021/03/29 11:21:08;;;;;;;6.40;3.30;;;;;;;;;;5114962;28;20484;-64
2021/03/29 11:23:34;;;;;;;5.10;3.00;;;;;;;;;;5114937;28;20528;-65
2021/03/29 11:26:01;;;;;;;6.83;3.80;;;;;;;;;;5115723;28;20530;-65
2021/03/29 11:28:28;;;;;;;4.77;3.37;;;;;;;;;;5116213;28;20524;-64
2021/03/29 11:30:55;;;;;;;6.50;2.90;;;;;;;;;;5114879;28;20439;-64
2021/03/29 11:33:22;;;;;;;6.13;3.07;;;;;;;;;;5115413;28;20446;-65
2021/03/29 11:35:49;;;;;;;7.13;3.50;;;;;;;;;;5114884;28;20519;-67
2021/03/29 11:38:16;;;;;;;6.47;3.50;;;;;;;;;;5114755;28;20621;-65
2021/03/29 11:40:43;;;;;;;7.23;3.50;;;;;;;;;;5114344;28;20488;-64
2021/03/29 11:43:10;;;;;;;4.70;2.97;;;;;;;;;;5114167;28;20515;-64
2021/03/29 11:45:38;;;;;;;3.30;3.00;;;;;;;;;;5114682;28;20545;-64
2021/03/29 11:48:05;;;;;;;7.27;3.33;;;;;;;;;;5115046;28;20549;-65
2021/03/29 11:50:32;;;;;;;3.97;2.37;;;;;;;;;;5114285;28;20482;-64
2021/03/29 11:53:00;;;;;;;4.30;2.67;;;;;;;;;;5114039;28;20449;-65
2021/03/29 11:55:27;;;;;;;4.23;2.80;;;;;;;;;;5114411;28;20446;-65
2021/03/29 11:57:55;;;;;;;11.60;3.50;;;;;;;;;;5114354;28;20963;-64
2021/03/29 12:00:26;;;;;;;8.43;3.17;;;;;;;;;;5114112;28;20454;-65
2021/03/29 12:03:02;;;;;;;7.23;3.53;;;;;;;;;;5114374;28;20487;-64
2021/03/29 12:05:31;;;;;;;7.73;3.73;;;;;;;;;;5114003;28;20952;-64
2021/03/29 12:08:11;;;;;;;6.43;3.17;;;;;;;;;;5114259;28;20443;-64
2021/03/29 12:13:23;;;;;;;5.70;2.90;;;;;;;;;;5114536;28;20748;-65
2021/03/29 12:15:57;;;;;;;8.00;2.97;;;;;;;;;;5113841;28;20554;-65
2021/03/29 12:18:33;;;;;;;6.93;3.50;;;;;;;;;;5114792;28;20428;-64
2021/03/29 12:21:01;;;;;;;6.83;3.10;;;;;;;;;;5114679;28;20877;-65
2021/03/29 12:23:28;;;;;;;7.60;3.20;;;;;;;;;;5114405;28;20584;-66
2021/03/29 12:25:56;;;;;;;6.27;3.07;;;;;;;;;;5114357;28;20445;-65
2021/03/29 12:28:23;;;;;;;6.17;3.53;;;;;;;;;;5113441;28;20849;-65
2021/03/29 12:30:50;;;;;;;3.90;2.97;;;;;;;;;;5113653;28;20450;-64
2021/03/29 12:33:17;;;;;;;9.33;3.53;;;;;;;;;;5114352;28;20481;-64
2021/03/29 12:35:44;;;;;;;6.73;3.63;;;;;;;;;;5113958;28;20468;-64
2021/03/29 12:38:11;;;;;;;6.90;3.23;;;;;;;;;;5113938;28;20487;-65
2021/03/29 12:40:41;;;;;;;3.43;3.13;;;;;;;;;;5113582;28;20431;-65
2021/03/29 12:43:12;;;;;;;8.17;3.23;;;;;;;;;;5113397;28;20516;-66
2021/03/29 12:45:42;;;;;;;9.80;3.27;;;;;;;;;;5113568;28;20945;-66
2021/03/29 12:48:10;;;;;;;5.70;3.03;;;;;;;;;;5114445;28;20538;-64
2021/03/29 12:50:37;;;;;;;9.00;3.20;;;;;;;;;;5113176;28;20439;-64
2021/03/29 12:53:04;;;;;;;4.80;2.50;;;;;;;;;;5113090;28;20488;-64
2021/03/29 12:55:31;;;;;;;7.07;3.10;;;;;;;;;;5113070;28;20439;-65
2021/03/29 12:57:58;;;;;;;6.67;3.37;;;;;;;;;;5113670;28;20537;-67
2021/03/29 13:00:27;;;;;;;4.50;2.40;;;;;;;;;;5113433;28;20511;-66
2021/03/29 13:02:56;;;;;;;5.20;2.60;;;;;;;;;;5113053;28;20532;-65
2021/03/29 13:05:30;;;;;;;6.60;3.50;;;;;;;;;;5117705;28;20446;-66
2021/03/29 13:08:03;;;;;;;6.73;3.10;;;;;;;;;;5117513;28;20503;-68
2021/03/29 13:13:16;;;;;;;6.90;3.40;;;;;;;;;;5117633;28;20430;-68
2021/03/29 13:15:44;;;;;;;8.30;3.80;;;;;;;;;;5117392;28;20525;-67
2021/03/29 13:18:11;;;;;;;5.20;3.63;;;;;;;;;;5115132;28;20534;-67
2021/03/29 13:20:38;;;;;;;7.67;3.43;;;;;;;;;;5117076;28;20529;-66
2021/03/29 13:23:05;;;;;;;5.90;3.10;;;;;;;;;;5116850;28;20561;-67
2021/03/29 13:25:32;;;;;;;9.30;3.50;;;;;;;;;;5117047;28;20482;-66
2021/03/29 13:28:00;;;;;;;5.57;3.20;;;;;;;;;;5116845;28;20541;-67
2021/03/29 13:30:27;;;;;;;5.20;3.47;;;;;;;;;;5117061;28;20526;-66
2021/03/29 13:32:56;;;;;;;3.60;3.30;;;;;;;;;;5117113;28;20795;-67
2021/03/29 13:35:23;;;;;;;3.40;3.10;;;;;;;;;;5116893;28;20961;-67
2021/03/29 13:37:50;;;;;;;3.83;3.13;;;;;;;;;;5117413;28;20484;-67
2021/03/29 13:40:18;;;;;;;5.90;3.20;;;;;;;;;;5116653;28;20491;-66
2021/03/29 13:42:45;;;;;;;7.53;3.80;;;;;;;;;;5116836;28;20889;-66
2021/03/29 13:45:13;;;;;;;8.43;4.30;;;;;;;;;;5117125;28;20916;-66
2021/03/29 13:47:40;;;;;;;7.27;3.80;;;;;;;;;;5114991;28;20438;-65
2021/03/29 13:50:09;;;;;;;5.33;3.10;;;;;;;;;;5116299;28;20948;-66
2021/03/29 13:52:36;;;;;;;5.77;3.33;;;;;;;;;;5116024;28;20444;-66
2021/03/29 13:55:03;;;;;;;9.07;3.13;;;;;;;;;;5116701;28;20798;-67
2021/03/29 13:57:30;;;;;;;9.23;3.27;;;;;;;;;;5115946;28;20477;-66
2021/03/29 13:59:57;;;;;;;4.83;3.37;;;;;;;;;;5115985;28;20477;-67
2021/03/29 14:02:24;;;;;;;5.87;3.50;;;;;;;;;;5115576;28;20526;-68
2021/03/29 14:04:51;;;;;;;8.37;3.20;;;;;;;;;;5114610;28;20926;-67
2021/03/29 14:07:18;;;;;;;9.70;3.77;;;;;;;;;;5115048;28;20486;-66
2021/03/29 14:09:45;;;;;;;3.47;2.90;;;;;;;;;;5115221;28;20451;-66
2021/03/29 14:12:13;;;;;;;6.60;3.20;;;;;;;;;;5115024;28;20529;-66
2021/03/29 14:14:39;;;;;;;8.97;3.43;;;;;;;;;;5113959;28;20438;-67
2021/03/29 14:17:06;;;;;;;3.30;3.00;;;;;;;;;;5112753;28;20487;-65
2021/03/29 14:19:33;;;;;;;4.67;2.87;;;;;;;;;;5114326;28;20926;-67
2021/03/29 14:22:00;;;;;;;3.80;3.03;;;;;;;;;;5114773;28;20499;-67
2021/03/29 14:24:28;;;;;;;7.73;3.53;;;;;;;;;;5114897;28;20809;-67
2021/03/29 14:26:55;;;;;;;3.27;2.90;;;;;;;;;;5114486;28;20459;-66
2021/03/29 14:29:21;;;;;;;3.50;3.20;;;;;;;;;;5113908;28;20468;-67
2021/03/29 14:31:48;;;;;;;7.43;3.47;;;;;;;;;;5114502;28;20447;-66
2021/03/29 14:34:19;;;;;;;3.93;3.07;;;;;;;;;;5114689;28;20946;-66
2021/03/29 14:36:55;;;;;;;5.30;3.17;;;;;;;;;;5114494;28;20961;-65
2021/03/29 14:39:29;;;;;;;4.53;3.50;;;;;;;;;;5114030;28;20447;-65
2021/03/29 14:42:10;;;;;;;6.77;3.70;;;;;;;;;;5114296;28;20519;-66
2021/03/29 14:44:37;;;;;;;6.90;3.23;;;;;;;;;;5114547;28;20427;-67
2021/03/29 14:47:05;;;;;;;6.40;3.77;;;;;;;;;;5112999;28;20858;-65
2021/03/29 14:49:32;;;;;;;5.57;3.47;;;;;;;;;;5113571;28;20441;-67
2021/03/29 14:52:00;;;;;;;4.93;2.93;;;;;;;;;;5113751;28;20452;-66